Time;durP1;ratioP1;P1;durP2;ratioP2;P2;SDS_P1;SDS_P2;PMS_P1;PMS_P2;Temp;Humidity;BMP_temperature;BMP_pressure;BME280_temperature;BME280_humidity;BME280_pressure;Samples;Min_cycle;Max_cycle;Signal;HPM_P1;HPM_P2
2022/04/13 00:01:00;;;;;;;19.52;10.82;;;;;;;;;;5016839;28;20146;-66
2022/04/13 00:03:26;;;;;;;17.85;10.80;;;;;;;;;;5015938;28;20056;-66
2022/04/13 00:05:51;;;;;;;21.25;11.25;;;;;;;;;;5016774;28;20048;-66
2022/04/13 00:08:16;;;;;;;21.60;11.40;;;;;;;;;;5017850;28;20093;-65
2022/04/13 00:10:44;;;;;;;21.15;10.85;;;;;;;;;;5019125;28;20032;-67
2022/04/13 00:13:10;;;;;;;21.85;10.13;;;;;;;;;;5018365;28;20420;-67
2022/04/13 00:15:37;;;;;;;19.35;9.57;;;;;;;;;;5018466;28;20037;-66
2022/04/13 00:18:06;;;;;;;19.42;8.90;;;;;;;;;;5017545;28;20112;-66
2022/04/13 00:20:32;;;;;;;18.60;8.10;;;;;;;;;;5018857;28;20417;-67
2022/04/13 00:22:57;;;;;;;16.85;7.75;;;;;;;;;;5020014;28;20064;-65
2022/04/13 00:25:22;;;;;;;13.75;7.05;;;;;;;;;;5048909;28;20100;-66
2022/04/13 00:27:50;;;;;;;21.17;6.90;;;;;;;;;;5017128;28;20538;-66
2022/04/13 00:30:15;;;;;;;13.63;6.25;;;;;;;;;;5019280;28;20028;-66
2022/04/13 00:32:41;;;;;;;16.08;7.07;;;;;;;;;;5019352;28;20052;-65
2022/04/13 00:35:08;;;;;;;17.13;6.80;;;;;;;;;;5019926;28;20477;-67
2022/04/13 00:37:39;;;;;;;17.77;7.53;;;;;;;;;;5021788;28;20233;-66
2022/04/13 00:40:10;;;;;;;16.10;7.30;;;;;;;;;;5017713;28;20041;-66
2022/04/13 00:42:35;;;;;;;16.95;7.25;;;;;;;;;;5026357;28;20465;-67
2022/04/13 00:45:03;;;;;;;13.00;7.07;;;;;;;;;;5018930;28;20037;-66
2022/04/13 00:47:29;;;;;;;15.15;7.43;;;;;;;;;;5018827;28;20034;-66
2022/04/13 00:49:56;;;;;;;19.65;7.63;;;;;;;;;;5016357;28;20032;-66
2022/04/13 00:52:26;;;;;;;16.85;7.82;;;;;;;;;;5018585;28;20469;-66
2022/04/13 00:54:53;;;;;;;17.92;8.30;;;;;;;;;;5018161;28;20108;-66
2022/04/13 00:57:20;;;;;;;19.88;9.48;;;;;;;;;;5018584;28;20033;-66
2022/04/13 00:59:48;;;;;;;22.80;9.60;;;;;;;;;;5020132;28;20021;-66
2022/04/13 01:02:15;;;;;;;22.95;9.80;;;;;;;;;;5021536;28;20041;-66
2022/04/13 01:04:43;;;;;;;17.27;10.45;;;;;;;;;;5017795;28;20494;-66
2022/04/13 01:07:09;;;;;;;23.02;11.27;;;;;;;;;;5019511;28;20461;-67
2022/04/13 01:09:35;;;;;;;25.70;11.60;;;;;;;;;;5021640;28;20051;-66
2022/04/13 01:12:03;;;;;;;23.98;12.77;;;;;;;;;;5018505;28;21962;-65
2022/04/13 01:14:29;;;;;;;28.45;12.88;;;;;;;;;;5017785;28;20075;-66
2022/04/13 01:16:54;;;;;;;25.17;12.93;;;;;;;;;;5017781;28;20033;-66
2022/04/13 01:19:19;;;;;;;23.60;12.60;;;;;;;;;;5018485;28;20404;-66
2022/04/13 01:21:47;;;;;;;25.08;13.18;;;;;;;;;;5018567;28;20491;-65
2022/04/13 01:24:13;;;;;;;27.88;15.65;;;;;;;;;;5021095;28;20146;-67
2022/04/13 01:26:38;;;;;;;28.05;15.88;;;;;;;;;;5018240;28;20132;-66
2022/04/13 01:29:04;;;;;;;30.73;16.13;;;;;;;;;;5016189;28;20477;-66
2022/04/13 01:31:30;;;;;;;32.67;16.30;;;;;;;;;;5019058;28;20032;-66
2022/04/13 01:33:57;;;;;;;31.00;17.67;;;;;;;;;;5021751;28;20033;-65
2022/04/13 01:36:22;;;;;;;36.95;17.98;;;;;;;;;;5021640;28;20027;-65
2022/04/13 01:38:48;;;;;;;33.35;17.63;;;;;;;;;;5020497;28;20029;-66
2022/04/13 01:41:13;;;;;;;29.65;17.15;;;;;;;;;;5022375;28;20215;-66
2022/04/13 01:43:39;;;;;;;36.08;18.05;;;;;;;;;;5019740;28;20052;-66
2022/04/13 01:46:04;;;;;;;30.27;17.20;;;;;;;;;;5020723;28;20032;-66
2022/04/13 01:48:31;;;;;;;32.97;16.90;;;;;;;;;;5021582;28;20496;-66
2022/04/13 01:50:58;;;;;;;30.23;16.63;;;;;;;;;;5021038;28;20029;-66
2022/04/13 01:53:23;;;;;;;33.63;16.42;;;;;;;;;;5020955;28;20020;-66
2022/04/13 01:55:49;;;;;;;31.83;15.73;;;;;;;;;;5020760;28;20040;-65
2022/04/13 01:58:14;;;;;;;32.67;15.60;;;;;;;;;;5021035;28;20156;-66
2022/04/13 02:00:39;;;;;;;28.17;15.35;;;;;;;;;;5021246;28;20033;-66
2022/04/13 02:03:04;;;;;;;33.55;16.13;;;;;;;;;;5020743;28;20052;-66
2022/04/13 02:05:32;;;;;;;32.92;16.52;;;;;;;;;;5018754;28;20021;-66
2022/04/13 02:07:57;;;;;;;34.67;16.27;;;;;;;;;;5019571;28;20040;-66
2022/04/13 02:10:25;;;;;;;33.13;16.92;;;;;;;;;;5039977;28;20034;-66
2022/04/13 02:12:51;;;;;;;33.55;15.43;;;;;;;;;;5021482;28;20033;-65
2022/04/13 02:15:17;;;;;;;26.10;14.80;;;;;;;;;;5007728;28;20079;-67
2022/04/13 02:17:45;;;;;;;31.73;15.25;;;;;;;;;;5019344;28;20041;-66
2022/04/13 02:20:10;;;;;;;35.42;16.27;;;;;;;;;;5019816;28;20037;-67
2022/04/13 02:22:36;;;;;;;34.22;16.58;;;;;;;;;;5019869;28;20050;-68
2022/04/13 02:25:05;;;;;;;32.30;16.65;;;;;;;;;;5020412;28;20087;-67
2022/04/13 02:27:30;;;;;;;36.15;16.88;;;;;;;;;;5019846;28;20024;-67
2022/04/13 02:29:56;;;;;;;37.13;17.08;;;;;;;;;;5036477;28;20060;-67
2022/04/13 02:32:23;;;;;;;36.38;18.20;;;;;;;;;;5034988;28;20033;-66
2022/04/13 02:34:49;;;;;;;38.35;17.60;;;;;;;;;;5020669;28;20043;-67
2022/04/13 02:37:17;;;;;;;41.00;18.20;;;;;;;;;;5019332;28;20053;-66
2022/04/13 02:39:44;;;;;;;39.25;16.75;;;;;;;;;;5020157;28;20476;-67
2022/04/13 02:42:14;;;;;;;35.92;17.85;;;;;;;;;;5019941;28;20017;-66
2022/04/13 02:44:39;;;;;;;41.30;19.13;;;;;;;;;;5021548;28;20175;-65
2022/04/13 02:47:07;;;;;;;40.03;18.92;;;;;;;;;;5019558;28;20048;-67
2022/04/13 02:49:32;;;;;;;39.33;18.63;;;;;;;;;;5021377;28;20043;-67
2022/04/13 02:51:57;;;;;;;38.55;18.83;;;;;;;;;;5019336;28;20259;-66
2022/04/13 02:54:25;;;;;;;35.90;17.58;;;;;;;;;;5019521;28;20041;-67
2022/04/13 02:56:50;;;;;;;33.25;17.05;;;;;;;;;;5019904;28;20037;-66
2022/04/13 02:59:16;;;;;;;36.80;16.70;;;;;;;;;;5019810;28;20134;-67
2022/04/13 03:01:43;;;;;;;31.65;15.65;;;;;;;;;;5019245;28;20065;-67
2022/04/13 03:04:10;;;;;;;34.60;14.30;;;;;;;;;;5018414;28;20041;-68
2022/04/13 03:06:36;;;;;;;31.05;13.10;;;;;;;;;;5019982;28;20056;-67
2022/04/13 03:09:03;;;;;;;29.90;13.40;;;;;;;;;;5019261;28;20041;-67
2022/04/13 03:11:31;;;;;;;29.40;13.02;;;;;;;;;;5033779;28;20037;-67
2022/04/13 03:13:56;;;;;;;34.60;12.88;;;;;;;;;;5009994;28;20060;-67
2022/04/13 03:16:22;;;;;;;30.02;13.98;;;;;;;;;;5020374;28;21913;-66
2022/04/13 03:18:47;;;;;;;30.98;14.43;;;;;;;;;;5018450;28;20044;-66
2022/04/13 03:21:15;;;;;;;34.92;15.20;;;;;;;;;;5018808;28;20344;-66
2022/04/13 03:23:41;;;;;;;37.33;15.45;;;;;;;;;;5018487;28;20110;-66
2022/04/13 03:26:07;;;;;;;34.88;15.35;;;;;;;;;;5019464;28;20033;-67
2022/04/13 03:28:33;;;;;;;32.90;16.60;;;;;;;;;;5018304;28;20029;-66
2022/04/13 03:30:58;;;;;;;32.63;15.63;;;;;;;;;;5019245;28;20393;-67
2022/04/13 03:33:24;;;;;;;34.03;16.50;;;;;;;;;;5020380;28;20056;-67
2022/04/13 03:35:49;;;;;;;29.15;16.55;;;;;;;;;;5017871;28;20061;-67
2022/04/13 03:38:15;;;;;;;37.17;17.85;;;;;;;;;;5019438;28;20444;-67
2022/04/13 03:40:41;;;;;;;35.72;16.67;;;;;;;;;;5020071;28;20087;-66
2022/04/13 03:43:06;;;;;;;30.95;16.42;;;;;;;;;;5021736;28;20143;-66
2022/04/13 03:45:34;;;;;;;38.55;16.58;;;;;;;;;;5017649;28;20314;-66
2022/04/13 03:48:00;;;;;;;36.58;17.17;;;;;;;;;;5021837;28;20037;-67
2022/04/13 03:50:25;;;;;;;33.67;17.58;;;;;;;;;;5019206;28;20095;-66
2022/04/13 03:52:50;;;;;;;31.27;15.65;;;;;;;;;;5018806;28;20036;-66
2022/04/13 03:55:22;;;;;;;33.78;16.65;;;;;;;;;;5020186;28;20363;-66
2022/04/13 03:57:47;;;;;;;34.65;17.00;;;;;;;;;;5005793;28;20044;-66
2022/04/13 04:00:13;;;;;;;31.52;17.52;;;;;;;;;;5020087;28;20088;-67
2022/04/13 04:02:39;;;;;;;31.83;18.17;;;;;;;;;;5019510;28;20615;-67
2022/04/13 04:05:04;;;;;;;29.67;17.83;;;;;;;;;;5017335;28;20748;-67
2022/04/13 04:07:30;;;;;;;36.22;17.75;;;;;;;;;;5017067;28;20089;-67
2022/04/13 04:09:55;;;;;;;34.70;17.92;;;;;;;;;;5005810;28;20051;-66
2022/04/13 04:12:20;;;;;;;32.63;17.77;;;;;;;;;;5019938;28;20052;-66
2022/04/13 04:14:46;;;;;;;34.30;18.27;;;;;;;;;;5017915;28;20555;-67
2022/04/13 04:17:11;;;;;;;40.83;18.02;;;;;;;;;;5050710;28;20820;-66
2022/04/13 04:19:39;;;;;;;47.00;18.63;;;;;;;;;;5018141;28;20464;-66
2022/04/13 04:22:07;;;;;;;39.08;17.05;;;;;;;;;;5022249;28;20033;-66
2022/04/13 04:24:32;;;;;;;33.13;17.02;;;;;;;;;;5017309;28;20079;-66
2022/04/13 04:26:57;;;;;;;41.35;17.02;;;;;;;;;;5018038;28;20056;-66
2022/04/13 04:29:24;;;;;;;42.20;17.60;;;;;;;;;;5017094;28;20064;-66
2022/04/13 04:31:53;;;;;;;40.10;18.67;;;;;;;;;;5018851;28;20124;-66
2022/04/13 04:34:19;;;;;;;38.85;18.70;;;;;;;;;;5018437;28;20036;-67
2022/04/13 04:36:45;;;;;;;38.17;18.83;;;;;;;;;;5016835;28;20029;-68
2022/04/13 04:39:10;;;;;;;42.75;19.98;;;;;;;;;;5032505;28;20042;-66
2022/04/13 04:41:36;;;;;;;40.80;18.88;;;;;;;;;;5026846;28;20032;-66
2022/04/13 04:44:02;;;;;;;43.70;19.48;;;;;;;;;;5019128;28;20037;-66
2022/04/13 04:46:27;;;;;;;41.33;20.17;;;;;;;;;;5018211;28;20029;-66
2022/04/13 04:48:56;;;;;;;41.38;19.10;;;;;;;;;;5036259;28;20049;-66
2022/04/13 04:51:21;;;;;;;41.35;18.38;;;;;;;;;;5017742;28;20444;-66
2022/04/13 04:53:49;;;;;;;37.38;19.02;;;;;;;;;;5021557;28;20025;-66
2022/04/13 04:56:15;;;;;;;39.88;19.58;;;;;;;;;;5020081;28;20107;-66
2022/04/13 04:58:42;;;;;;;47.13;18.52;;;;;;;;;;5017000;28;20029;-67
2022/04/13 05:01:11;;;;;;;36.45;17.48;;;;;;;;;;5018392;28;20083;-66
2022/04/13 05:03:39;;;;;;;35.33;16.98;;;;;;;;;;5004729;28;20524;-67
2022/04/13 05:06:04;;;;;;;39.65;17.40;;;;;;;;;;5018768;28;20094;-67
2022/04/13 05:08:30;;;;;;;39.28;18.38;;;;;;;;;;5022059;28;20068;-66
2022/04/13 05:10:55;;;;;;;43.95;18.77;;;;;;;;;;5020522;28;20130;-67
2022/04/13 05:13:21;;;;;;;42.83;20.30;;;;;;;;;;5021016;28;20291;-67
2022/04/13 05:15:48;;;;;;;40.42;20.60;;;;;;;;;;5020528;28;20045;-67
2022/04/13 05:18:14;;;;;;;47.60;19.77;;;;;;;;;;5025624;28;20118;-66
2022/04/13 05:20:40;;;;;;;43.20;19.92;;;;;;;;;;5021444;28;20384;-66
2022/04/13 05:23:05;;;;;;;45.35;20.63;;;;;;;;;;5052881;28;20058;-66
2022/04/13 05:25:31;;;;;;;41.25;20.30;;;;;;;;;;5020947;28;20039;-66
2022/04/13 05:27:56;;;;;;;43.60;20.15;;;;;;;;;;5021809;28;20033;-67
2022/04/13 05:30:21;;;;;;;41.78;19.90;;;;;;;;;;5021506;28;20524;-67
2022/04/13 05:32:48;;;;;;;37.53;18.88;;;;;;;;;;5052719;28;20037;-67
2022/04/13 05:35:13;;;;;;;38.60;19.25;;;;;;;;;;5019647;28;20117;-67
2022/04/13 05:37:39;;;;;;;37.20;18.45;;;;;;;;;;5036828;28;20186;-66
2022/04/13 05:40:07;;;;;;;41.08;18.42;;;;;;;;;;5022855;28;20036;-67
2022/04/13 05:42:33;;;;;;;40.83;18.80;;;;;;;;;;5020040;28;20464;-67
2022/04/13 05:44:58;;;;;;;42.00;19.17;;;;;;;;;;5021517;28;20095;-66
2022/04/13 05:47:24;;;;;;;45.97;19.27;;;;;;;;;;5055097;28;20048;-66
2022/04/13 05:49:49;;;;;;;49.75;20.63;;;;;;;;;;5022978;28;20078;-66
2022/04/13 05:52:15;;;;;;;39.00;21.05;;;;;;;;;;5021267;28;20444;-66
2022/04/13 05:54:41;;;;;;;44.08;21.13;;;;;;;;;;5020194;28;20387;-66
2022/04/13 05:57:08;;;;;;;47.97;21.05;;;;;;;;;;5022840;28;20033;-66
2022/04/13 05:59:34;;;;;;;43.85;20.15;;;;;;;;;;5014059;28;21192;-67
2022/04/13 06:01:59;;;;;;;45.17;19.77;;;;;;;;;;5018206;28;20025;-65
2022/04/13 06:04:25;;;;;;;44.88;20.08;;;;;;;;;;5019210;28;20031;-67
2022/04/13 06:06:54;;;;;;;35.60;18.77;;;;;;;;;;5021189;28;20037;-67
2022/04/13 06:09:19;;;;;;;34.95;18.65;;;;;;;;;;5021527;28;20063;-65
2022/04/13 06:11:48;;;;;;;39.03;19.20;;;;;;;;;;5007516;28;22238;-67
2022/04/13 06:14:13;;;;;;;41.88;18.23;;;;;;;;;;5021809;28;20290;-65
2022/04/13 06:16:38;;;;;;;40.22;18.33;;;;;;;;;;5021767;28;20056;-67
2022/04/13 06:19:04;;;;;;;41.50;17.83;;;;;;;;;;5020991;28;20041;-65
2022/04/13 06:21:29;;;;;;;40.95;17.52;;;;;;;;;;5020436;28;20068;-65
2022/04/13 06:23:55;;;;;;;30.27;16.08;;;;;;;;;;5020412;28;20041;-65
2022/04/13 06:26:20;;;;;;;37.80;16.92;;;;;;;;;;5020806;28;20619;-65
2022/04/13 06:28:45;;;;;;;36.03;17.10;;;;;;;;;;5021939;28;20493;-65
2022/04/13 06:31:13;;;;;;;35.20;15.35;;;;;;;;;;5005802;28;20603;-65
2022/04/13 06:33:40;;;;;;;35.28;16.17;;;;;;;;;;5020606;28;20033;-66
2022/04/13 06:36:08;;;;;;;26.40;15.10;;;;;;;;;;5035798;28;20036;-66
2022/04/13 06:38:34;;;;;;;29.58;13.65;;;;;;;;;;5021910;28;20108;-66
2022/04/13 06:40:59;;;;;;;35.65;14.75;;;;;;;;;;5022079;28;20063;-66
2022/04/13 06:43:24;;;;;;;31.55;14.13;;;;;;;;;;5019504;28;20632;-66
2022/04/13 06:45:52;;;;;;;28.88;13.65;;;;;;;;;;5021657;28;20033;-67
2022/04/13 06:48:17;;;;;;;32.88;13.38;;;;;;;;;;5022234;28;20068;-66
2022/04/13 06:50:42;;;;;;;30.95;14.50;;;;;;;;;;5004840;28;20198;-65
2022/04/13 06:53:07;;;;;;;31.70;14.18;;;;;;;;;;5051075;28;20240;-66
2022/04/13 06:55:33;;;;;;;28.38;12.70;;;;;;;;;;5019007;28;20504;-65
2022/04/13 06:57:58;;;;;;;28.20;13.73;;;;;;;;;;5050036;28;20452;-66
2022/04/13 07:00:24;;;;;;;24.60;12.35;;;;;;;;;;5020323;28;22643;-66
2022/04/13 07:02:49;;;;;;;25.73;11.88;;;;;;;;;;5019748;28;20021;-65
2022/04/13 07:05:14;;;;;;;23.15;11.95;;;;;;;;;;5018364;28;20020;-67
2022/04/13 07:07:41;;;;;;;23.33;11.60;;;;;;;;;;5019693;28;20037;-66
2022/04/13 07:10:06;;;;;;;29.95;11.40;;;;;;;;;;5005383;28;20522;-66
2022/04/13 07:12:35;;;;;;;25.65;11.48;;;;;;;;;;5018834;28;20087;-67
2022/04/13 07:15:01;;;;;;;25.55;11.32;;;;;;;;;;5020571;28;20033;-65
2022/04/13 07:17:27;;;;;;;23.33;10.35;;;;;;;;;;5019655;28;20140;-66
2022/04/13 07:19:54;;;;;;;17.52;9.57;;;;;;;;;;5019068;28;20052;-66
2022/04/13 07:22:20;;;;;;;23.30;9.55;;;;;;;;;;5020204;28;20029;-66
2022/04/13 07:24:48;;;;;;;21.98;9.27;;;;;;;;;;5018857;28;20112;-65
2022/04/13 07:27:14;;;;;;;18.90;9.18;;;;;;;;;;5022480;28;22224;-66
2022/04/13 07:29:39;;;;;;;19.85;8.02;;;;;;;;;;5005181;28;20037;-67
2022/04/13 07:32:06;;;;;;;19.85;7.97;;;;;;;;;;5021206;28;20568;-66
2022/04/13 07:34:32;;;;;;;17.83;7.47;;;;;;;;;;5017437;28;20503;-64
2022/04/13 07:36:57;;;;;;;18.02;7.63;;;;;;;;;;5018702;28;20057;-62
2022/04/13 07:39:23;;;;;;;19.77;7.57;;;;;;;;;;5017175;28;20112;-65
2022/04/13 07:41:48;;;;;;;20.13;7.55;;;;;;;;;;5017026;28;20080;-64
2022/04/13 07:44:16;;;;;;;18.80;7.20;;;;;;;;;;5019476;28;20467;-64
2022/04/13 07:46:41;;;;;;;19.08;7.07;;;;;;;;;;5016458;28;20037;-64
2022/04/13 07:49:08;;;;;;;18.15;7.90;;;;;;;;;;5016872;28;20507;-63
2022/04/13 07:51:34;;;;;;;22.17;8.45;;;;;;;;;;5016662;28;20026;-65
2022/04/13 07:54:01;;;;;;;20.73;7.75;;;;;;;;;;5017386;28;20515;-65
2022/04/13 07:56:29;;;;;;;21.52;7.70;;;;;;;;;;5016827;28;20033;-66
2022/04/13 07:58:54;;;;;;;15.07;7.07;;;;;;;;;;5047823;28;20780;-64
2022/04/13 08:01:20;;;;;;;16.63;7.00;;;;;;;;;;5017029;28;20106;-66
2022/04/13 08:03:45;;;;;;;17.83;6.97;;;;;;;;;;5016007;28;20125;-65
2022/04/13 08:06:11;;;;;;;19.85;7.63;;;;;;;;;;5016966;28;20059;-64
2022/04/13 08:08:37;;;;;;;14.32;6.75;;;;;;;;;;5017057;28;20491;-65
2022/04/13 08:11:05;;;;;;;17.23;7.07;;;;;;;;;;5020318;28;20643;-66
2022/04/13 08:13:30;;;;;;;17.85;7.68;;;;;;;;;;5018981;28;20091;-65
2022/04/13 08:15:56;;;;;;;17.85;7.63;;;;;;;;;;5016826;28;20072;-65
2022/04/13 08:18:23;;;;;;;16.98;7.43;;;;;;;;;;5015296;28;20033;-64
2022/04/13 08:20:50;;;;;;;15.98;6.85;;;;;;;;;;5015380;28;20567;-64
2022/04/13 08:23:16;;;;;;;17.95;7.13;;;;;;;;;;5016905;28;20063;-64
2022/04/13 08:25:42;;;;;;;21.52;7.63;;;;;;;;;;5015222;28;20460;-63
2022/04/13 08:28:07;;;;;;;17.10;7.07;;;;;;;;;;5017952;28;20060;-65
2022/04/13 08:30:36;;;;;;;18.15;7.28;;;;;;;;;;5016254;28;20025;-65
2022/04/13 08:33:02;;;;;;;19.40;6.88;;;;;;;;;;5013288;28;20243;-65
2022/04/13 08:35:29;;;;;;;20.00;7.03;;;;;;;;;;5047248;28;20324;-64
2022/04/13 08:37:55;;;;;;;19.13;6.93;;;;;;;;;;5018165;28;20029;-64
2022/04/13 08:40:21;;;;;;;16.20;6.53;;;;;;;;;;5016271;28;20037;-65
2022/04/13 08:42:52;;;;;;;13.77;6.47;;;;;;;;;;5020813;28;20443;-66
2022/04/13 08:45:23;;;;;;;15.65;7.22;;;;;;;;;;5020511;28;20586;-64
2022/04/13 08:47:56;;;;;;;18.13;6.95;;;;;;;;;;5021621;28;20029;-64
2022/04/13 08:50:22;;;;;;;14.73;6.20;;;;;;;;;;5021597;28;20616;-65
2022/04/13 08:52:50;;;;;;;13.20;6.10;;;;;;;;;;5020643;28;20029;-65
2022/04/13 08:55:21;;;;;;;14.77;5.70;;;;;;;;;;5022373;28;20024;-64
2022/04/13 08:57:50;;;;;;;14.80;5.90;;;;;;;;;;5020418;28;20033;-66
2022/04/13 09:00:17;;;;;;;18.10;6.40;;;;;;;;;;5019611;28;20036;-66
2022/04/13 09:02:56;;;;;;;13.95;6.10;;;;;;;;;;5020735;28;21156;-67
2022/04/13 09:05:27;;;;;;;15.95;5.72;;;;;;;;;;5020174;28;20039;-65
2022/04/13 09:08:02;;;;;;;13.68;5.90;;;;;;;;;;5021671;28;20547;-65
2022/04/13 09:10:30;;;;;;;15.38;6.13;;;;;;;;;;5019656;28;20544;-65
2022/04/13 09:12:56;;;;;;;15.68;5.90;;;;;;;;;;5022749;28;20033;-65
2022/04/13 09:15:24;;;;;;;13.80;5.40;;;;;;;;;;5017098;28;20343;-66
2022/04/13 09:17:49;;;;;;;13.48;5.70;;;;;;;;;;5021709;28;20053;-66
2022/04/13 09:20:17;;;;;;;15.95;5.90;;;;;;;;;;5020550;28;20246;-74
2022/04/13 09:22:43;;;;;;;11.73;5.20;;;;;;;;;;5023710;28;20159;-73
2022/04/13 09:25:09;;;;;;;14.43;5.70;;;;;;;;;;5019237;28;20684;-74
2022/04/13 09:27:38;;;;;;;15.93;5.57;;;;;;;;;;5037371;28;20033;-73
2022/04/13 09:30:05;;;;;;;13.48;5.60;;;;;;;;;;5019616;28;20626;-73
2022/04/13 09:32:34;;;;;;;16.52;5.78;;;;;;;;;;5020536;28;20064;-74
2022/04/13 09:35:02;;;;;;;12.50;5.53;;;;;;;;;;5018287;28;20586;-74
2022/04/13 09:37:28;;;;;;;11.48;5.38;;;;;;;;;;5018093;28;20024;-74
2022/04/13 09:39:53;;;;;;;14.52;5.93;;;;;;;;;;5016362;28;20691;-73
2022/04/13 09:42:20;;;;;;;19.85;5.65;;;;;;;;;;5017998;28;20443;-75
2022/04/13 09:44:53;;;;;;;14.98;5.20;;;;;;;;;;5020473;28;20021;-75
2022/04/13 09:47:19;;;;;;;12.25;5.45;;;;;;;;;;5016016;28;20177;-73
2022/04/13 09:49:45;;;;;;;14.32;4.95;;;;;;;;;;5020603;28;20057;-75
2022/04/13 09:52:15;;;;;;;13.70;5.38;;;;;;;;;;5019145;28;20017;-75
2022/04/13 09:54:47;;;;;;;19.50;5.07;;;;;;;;;;5019278;28;20025;-75
2022/04/13 09:57:25;;;;;;;17.00;5.43;;;;;;;;;;5014898;28;20493;-73
2022/04/13 09:59:58;;;;;;;15.63;5.63;;;;;;;;;;5013371;28;20047;-73
2022/04/13 10:02:53;;;;;;;15.82;6.32;;;;;;;;;;5013849;28;20033;-72
2022/04/13 10:05:18;;;;;;;14.93;5.78;;;;;;;;;;5013672;28;20624;-72
2022/04/13 10:07:44;;;;;;;12.70;5.50;;;;;;;;;;5018849;28;20056;-74
2022/04/13 10:10:22;;;;;;;13.60;6.28;;;;;;;;;;5014216;28;20043;-72
2022/04/13 10:12:48;;;;;;;17.42;6.53;;;;;;;;;;5016343;28;20048;-72
2022/04/13 10:15:14;;;;;;;15.15;6.32;;;;;;;;;;5047143;28;20641;-72
2022/04/13 10:17:40;;;;;;;18.77;6.38;;;;;;;;;;5011676;28;20351;-72
2022/04/13 10:20:05;;;;;;;18.35;6.07;;;;;;;;;;5016092;28;20048;-72
2022/04/13 10:22:31;;;;;;;14.25;6.38;;;;;;;;;;5012225;28;20029;-71
2022/04/13 10:25:15;;;;;;;17.50;6.80;;;;;;;;;;5013275;28;20210;-72
2022/04/13 10:27:51;;;;;;;16.90;5.80;;;;;;;;;;5013081;28;20021;-73
2022/04/13 10:30:23;;;;;;;12.85;5.82;;;;;;;;;;5011252;28;20070;-71
2022/04/13 10:32:58;;;;;;;15.52;5.75;;;;;;;;;;5014208;28;20310;-72
2022/04/13 10:35:23;;;;;;;13.60;5.78;;;;;;;;;;5012609;28;20376;-72
2022/04/13 10:37:49;;;;;;;13.15;6.18;;;;;;;;;;5014913;28;20226;-74
2022/04/13 10:40:15;;;;;;;17.80;6.10;;;;;;;;;;5012287;28;20072;-74
2022/04/13 10:42:45;;;;;;;14.68;5.50;;;;;;;;;;5014129;28;20041;-75
2022/04/13 10:45:13;;;;;;;15.68;5.65;;;;;;;;;;5013288;28;20734;-74
2022/04/13 10:47:41;;;;;;;14.10;5.55;;;;;;;;;;5012574;28;20164;-74
2022/04/13 10:50:07;;;;;;;13.18;6.07;;;;;;;;;;5011635;28;20393;-74
2022/04/13 10:52:51;;;;;;;15.27;6.03;;;;;;;;;;5013455;28;20437;-74
2022/04/13 10:55:19;;;;;;;15.95;5.40;;;;;;;;;;5011490;28;20888;-75
2022/04/13 10:58:00;;;;;;;19.25;5.68;;;;;;;;;;5009591;28;20022;-72
2022/04/13 11:00:27;;;;;;;12.90;5.35;;;;;;;;;;5009610;28;20419;-73
2022/04/13 11:02:53;;;;;;;13.55;5.32;;;;;;;;;;5012051;28;20033;-73
2022/04/13 11:05:20;;;;;;;12.13;5.20;;;;;;;;;;5011575;28;20583;-74
2022/04/13 11:07:46;;;;;;;13.40;4.78;;;;;;;;;;5010894;28;20032;-73
2022/04/13 11:10:16;;;;;;;13.48;4.50;;;;;;;;;;5010414;28;20068;-74
2022/04/13 11:12:41;;;;;;;15.48;5.20;;;;;;;;;;5009440;28;20692;-74
2022/04/13 11:15:10;;;;;;;10.93;4.28;;;;;;;;;;5008396;28;20107;-74
2022/04/13 11:17:39;;;;;;;13.15;4.38;;;;;;;;;;5010914;28;20950;-73
2022/04/13 11:20:18;;;;;;;12.57;4.13;;;;;;;;;;5012564;28;20025;-73
2022/04/13 11:22:44;;;;;;;13.10;4.18;;;;;;;;;;5009677;28;20729;-73
2022/04/13 11:25:09;;;;;;;13.73;4.10;;;;;;;;;;5008704;28;20102;-74
2022/04/13 11:27:53;;;;;;;12.25;4.10;;;;;;;;;;5008956;28;20040;-73
2022/04/13 11:30:19;;;;;;;14.30;4.68;;;;;;;;;;5012135;28;20045;-74
2022/04/13 11:32:45;;;;;;;11.40;3.78;;;;;;;;;;5017451;28;20070;-73
2022/04/13 11:35:24;;;;;;;10.45;4.05;;;;;;;;;;5009735;28;20052;-74
2022/04/13 11:38:04;;;;;;;8.98;4.10;;;;;;;;;;5010316;28;20078;-74
2022/04/13 11:40:30;;;;;;;12.88;4.10;;;;;;;;;;5012293;28;20553;-73
2022/04/13 11:42:57;;;;;;;13.63;4.40;;;;;;;;;;5012898;28;20083;-74
2022/04/13 11:45:23;;;;;;;12.35;4.32;;;;;;;;;;5010280;28;20099;-74
2022/04/13 11:47:51;;;;;;;11.82;4.50;;;;;;;;;;5010958;28;20068;-74
2022/04/13 11:50:17;;;;;;;12.13;4.15;;;;;;;;;;5010790;28;20116;-73
2022/04/13 11:52:51;;;;;;;11.30;4.07;;;;;;;;;;5010991;28;20035;-74
2022/04/13 11:55:25;;;;;;;11.13;4.13;;;;;;;;;;5016493;28;20039;-72
2022/04/13 11:58:08;;;;;;;11.30;4.15;;;;;;;;;;5010579;28;20190;-72
2022/04/13 12:00:36;;;;;;;11.82;4.10;;;;;;;;;;5009697;28;20029;-73
2022/04/13 12:03:02;;;;;;;8.43;3.67;;;;;;;;;;5014276;28;20449;-73
2022/04/13 12:05:28;;;;;;;11.13;4.20;;;;;;;;;;5012771;28;20033;-74
2022/04/13 12:07:54;;;;;;;12.85;3.80;;;;;;;;;;5009687;28;20196;-73
2022/04/13 12:10:24;;;;;;;12.45;3.83;;;;;;;;;;5009804;28;20041;-74
2022/04/13 12:12:52;;;;;;;10.60;3.70;;;;;;;;;;5011445;28;20031;-73
2022/04/13 12:15:18;;;;;;;13.73;4.20;;;;;;;;;;5010670;28;20033;-73
2022/04/13 12:17:44;;;;;;;9.00;3.80;;;;;;;;;;5007047;28;23035;-73
2022/04/13 12:20:25;;;;;;;9.70;3.58;;;;;;;;;;5008262;28;20028;-75
2022/04/13 12:22:51;;;;;;;11.88;3.65;;;;;;;;;;5012469;28;20106;-75
2022/04/13 12:25:18;;;;;;;12.32;3.75;;;;;;;;;;5010254;28;20041;-74
2022/04/13 12:28:02;;;;;;;13.20;3.90;;;;;;;;;;5008137;28;20049;-75
2022/04/13 12:30:28;;;;;;;12.05;3.60;;;;;;;;;;5010047;28;20480;-73
2022/04/13 12:32:54;;;;;;;10.40;3.95;;;;;;;;;;5016576;28;20092;-74
2022/04/13 12:35:19;;;;;;;8.45;3.10;;;;;;;;;;5015984;28;20386;-73
2022/04/13 12:37:51;;;;;;;13.65;3.80;;;;;;;;;;5015049;28;22229;-75
2022/04/13 12:40:21;;;;;;;11.57;3.70;;;;;;;;;;5015936;28;20025;-74
2022/04/13 12:42:46;;;;;;;9.15;3.42;;;;;;;;;;5016416;28;20044;-74
2022/04/13 12:45:14;;;;;;;10.45;3.53;;;;;;;;;;5015466;28;20044;-73
2022/04/13 12:47:43;;;;;;;11.00;3.97;;;;;;;;;;5030924;28;20055;-75
2022/04/13 12:50:08;;;;;;;12.32;3.63;;;;;;;;;;5016520;28;20289;-75
2022/04/13 12:52:35;;;;;;;13.60;3.92;;;;;;;;;;5047340;28;20427;-74
2022/04/13 12:55:01;;;;;;;8.80;3.50;;;;;;;;;;5003293;28;20562;-73
2022/04/13 12:57:26;;;;;;;10.63;3.38;;;;;;;;;;5016226;28;20075;-73
2022/04/13 12:59:52;;;;;;;10.02;3.88;;;;;;;;;;5032137;28;20523;-75
2022/04/13 13:02:20;;;;;;;9.05;3.28;;;;;;;;;;5016596;28;20100;-74
2022/04/13 13:04:48;;;;;;;10.95;3.58;;;;;;;;;;5016137;28;20064;-74
2022/04/13 13:07:19;;;;;;;11.40;3.70;;;;;;;;;;5015585;28;20452;-74
2022/04/13 13:09:51;;;;;;;10.10;3.85;;;;;;;;;;5017234;28;20033;-73
2022/04/13 13:12:17;;;;;;;9.52;3.50;;;;;;;;;;5015597;28;20037;-73
2022/04/13 13:14:47;;;;;;;8.13;3.75;;;;;;;;;;5003100;28;20445;-74
2022/04/13 13:17:21;;;;;;;11.18;3.40;;;;;;;;;;5014249;28;20037;-73
2022/04/13 13:19:47;;;;;;;12.75;3.60;;;;;;;;;;5031052;28;20083;-74
2022/04/13 13:22:15;;;;;;;9.35;3.67;;;;;;;;;;5013514;28;20444;-73
2022/04/13 13:24:47;;;;;;;8.45;3.90;;;;;;;;;;5027263;28;20256;-73
2022/04/13 13:27:13;;;;;;;12.38;3.90;;;;;;;;;;5017012;28;20098;-74
2022/04/13 13:29:45;;;;;;;10.60;3.80;;;;;;;;;;5016051;28;20272;-73
2022/04/13 13:32:11;;;;;;;11.13;4.60;;;;;;;;;;5015191;28;20033;-73
2022/04/13 13:34:37;;;;;;;16.08;4.00;;;;;;;;;;5014276;28;20162;-72
2022/04/13 13:37:03;;;;;;;10.93;4.30;;;;;;;;;;5030739;28;20037;-73
2022/04/13 13:39:28;;;;;;;11.70;4.50;;;;;;;;;;5013480;28;20034;-73
2022/04/13 13:42:09;;;;;;;8.02;3.58;;;;;;;;;;5014656;28;20029;-74
2022/04/13 13:44:35;;;;;;;11.40;3.35;;;;;;;;;;5014110;28;20592;-73
2022/04/13 13:47:00;;;;;;;8.93;3.70;;;;;;;;;;4988290;28;20037;-72
2022/04/13 13:49:26;;;;;;;11.98;4.10;;;;;;;;;;5018690;28;20422;-72
2022/04/13 13:51:54;;;;;;;9.65;3.72;;;;;;;;;;5021271;28;20467;-72
2022/04/13 13:54:19;;;;;;;11.10;3.72;;;;;;;;;;5019461;28;20191;-73
2022/04/13 13:56:44;;;;;;;11.90;4.20;;;;;;;;;;5016248;28;20075;-73
2022/04/13 13:59:09;;;;;;;10.95;3.65;;;;;;;;;;5014736;28;20040;-74
2022/04/13 14:01:37;;;;;;;10.10;3.63;;;;;;;;;;5028996;28;20037;-73
2022/04/13 14:04:02;;;;;;;9.13;3.53;;;;;;;;;;5013336;28;20485;-73
2022/04/13 14:06:28;;;;;;;9.40;3.45;;;;;;;;;;5012994;28;20059;-73
2022/04/13 14:08:53;;;;;;;8.68;3.38;;;;;;;;;;5044838;28;20299;-74
2022/04/13 14:11:18;;;;;;;10.85;3.50;;;;;;;;;;5012393;28;20067;-72
2022/04/13 14:13:48;;;;;;;11.20;3.80;;;;;;;;;;5013212;28;20186;-72
2022/04/13 14:16:18;;;;;;;8.30;3.60;;;;;;;;;;5014712;28;20189;-72
2022/04/13 14:18:44;;;;;;;11.48;3.67;;;;;;;;;;5017691;28;20046;-74
2022/04/13 14:21:10;;;;;;;11.65;3.88;;;;;;;;;;5020005;28;20061;-73
2022/04/13 14:23:38;;;;;;;8.95;3.50;;;;;;;;;;5020045;28;20043;-72